createdAt,value
2023-05-15T00:02:35.000Z,97013.81
2023-05-15T00:06:39.296Z,97009.13
2023-05-15T00:10:57.413Z,97004.28
2023-05-15T00:15:03.624Z,96997.63
2023-05-15T00:19:06.821Z,96998.00
2023-05-15T00:23:10.083Z,97006.19
2023-05-15T00:27:14.671Z,97009.00
2023-05-15T00:31:18.001Z,97001.53
2023-05-15T00:35:20.925Z,96997.47
2023-05-15T00:39:24.554Z,96997.47
2023-05-15T00:43:30.601Z,97009.53
2023-05-15T00:47:35.294Z,97002.53
2023-05-15T00:51:38.845Z,96995.13
2023-05-15T00:55:43.796Z,96999.97
2023-05-15T00:59:51.502Z,96989.53
2023-05-15T01:03:55.062Z,96974.34
2023-05-15T01:08:10.064Z,96951.16
2023-05-15T01:12:16.999Z,97002.72
2023-05-15T01:16:22.799Z,97001.72
2023-05-15T01:20:27.284Z,96997.88
2023-05-15T01:24:51.490Z,97000.94
2023-05-15T01:29:01.099Z,96994.88
2023-05-15T01:33:10.083Z,96982.56
2023-05-15T01:37:16.123Z,96991.63
2023-05-15T01:41:26.345Z,96982.19
2023-05-15T01:45:33.774Z,96982.38
2023-05-15T01:49:38.176Z,96985.81
2023-05-15T01:53:43.974Z,96990.41
2023-05-15T01:57:48.835Z,96982.75
2023-05-15T02:01:54.154Z,96979.53
2023-05-15T02:05:58.057Z,96982.94
2023-05-15T02:10:03.301Z,96987.56
2023-05-15T02:14:07.144Z,96988.53
2023-05-15T02:18:12.305Z,96994.75
2023-05-15T02:22:15.528Z,96983.69
2023-05-15T02:26:31.361Z,96986.09
2023-05-15T02:30:40.366Z,96985.50
2023-05-15T02:34:52.724Z,96971.75
2023-05-15T02:38:58.046Z,96976.88
2023-05-15T02:43:02.044Z,96973.56
2023-05-15T02:47:06.581Z,96975.75
2023-05-15T02:51:12.494Z,96969.09
2023-05-15T02:55:16.296Z,96970.72
2023-05-15T02:59:20.284Z,96965.88
2023-05-15T03:03:23.615Z,96966.88
2023-05-15T03:07:28.322Z,96973.38
2023-05-15T03:11:31.751Z,96972.22
2023-05-15T03:15:35.062Z,96972.69
2023-05-15T03:19:38.790Z,96979.53
2023-05-15T03:23:43.280Z,96972.31
2023-05-15T03:27:47.042Z,96977.19
2023-05-15T03:31:50.299Z,96965.13
2023-05-15T03:35:53.695Z,96978.78
2023-05-15T03:39:58.384Z,96975.22
2023-05-15T03:44:01.753Z,96972.41
2023-05-15T03:48:07.604Z,96974.44
2023-05-15T03:52:11.763Z,96979.31
2023-05-15T03:56:16.679Z,96983.56
2023-05-15T04:00:20.534Z,96981.19
2023-05-15T04:04:23.686Z,96976.59
2023-05-15T04:08:27.149Z,96985.84
2023-05-15T04:12:33.385Z,96990.72
2023-05-15T04:16:36.366Z,96989.53
2023-05-15T04:20:39.672Z,96985.53
2023-05-15T04:24:43.240Z,96988.25
2023-05-15T04:29:00.176Z,96988.28
2023-05-15T04:33:07.592Z,96997.00
2023-05-15T04:37:10.806Z,96994.28
2023-05-15T04:41:14.195Z,96999.56
2023-05-15T04:45:18.906Z,96995.19
2023-05-15T04:49:22.223Z,96994.63
2023-05-15T04:53:25.694Z,96999.47
2023-05-15T04:57:29.829Z,96998.47
2023-05-15T05:01:34.558Z,97002.16
2023-05-15T05:05:37.997Z,97005.00
2023-05-15T05:09:41.577Z,97006.06
2023-05-15T05:13:44.989Z,97002.31
2023-05-15T05:17:49.672Z,97010.66
2023-05-15T05:21:52.938Z,97007.13
2023-05-15T05:25:55.982Z,97014.22
2023-05-15T05:29:59.416Z,97017.13
2023-05-15T05:34:04.270Z,97014.78
2023-05-15T05:38:07.445Z,97019.66
2023-05-15T05:42:10.646Z,97015.69
2023-05-15T05:46:13.881Z,97017.75
2023-05-15T05:50:18.391Z,97030.50
2023-05-15T05:54:22.059Z,97024.66
2023-05-15T05:58:26.267Z,97026.50
2023-05-15T06:02:29.943Z,97027.97
2023-05-15T06:06:34.808Z,97027.22
2023-05-15T06:10:38.289Z,97028.03
2023-05-15T06:14:41.408Z,97032.69
2023-05-15T06:18:44.823Z,97036.13
2023-05-15T06:22:49.856Z,97027.44
2023-05-15T06:26:53.216Z,97037.94
2023-05-15T06:30:56.416Z,97035.31
2023-05-15T06:34:59.929Z,97049.03
2023-05-15T06:39:04.306Z,97048.03
2023-05-15T06:43:07.923Z,97045.41
2023-05-15T06:47:10.995Z,97042.97
2023-05-15T06:51:14.806Z,97047.00
2023-05-15T06:55:19.507Z,97039.38
2023-05-15T06:59:22.695Z,97043.63
2023-05-15T07:03:25.961Z,97049.13
2023-05-15T07:07:29.045Z,97047.72
2023-05-15T07:11:37.579Z,97043.47
2023-05-15T07:15:41.234Z,97044.72
2023-05-15T07:19:44.881Z,97050.75
2023-05-15T07:23:48.230Z,97048.72
2023-05-15T07:27:52.775Z,97053.13
2023-05-15T07:31:56.112Z,97050.25
2023-05-15T07:35:59.530Z,97049.44
2023-05-15T07:40:03.078Z,97050.41
2023-05-15T07:44:07.896Z,97047.31
2023-05-15T07:48:19.145Z,97056.56
2023-05-15T07:52:22.258Z,97062.59
2023-05-15T07:56:25.671Z,97063.78
2023-05-15T08:00:30.110Z,97052.84
2023-05-15T08:04:33.491Z,97052.00
2023-05-15T08:08:36.778Z,97062.47
2023-05-15T08:12:46.461Z,97059.13
2023-05-15T08:16:51.863Z,97053.59
2023-05-15T08:20:55.234Z,97049.97
2023-05-15T08:25:00.333Z,97046.50
2023-05-15T08:29:03.909Z,97054.72
2023-05-15T08:33:08.495Z,97061.53
2023-05-15T08:37:12.067Z,97079.56
2023-05-15T08:41:39.178Z,97085.00
2023-05-15T08:45:43.659Z,97087.63
2023-05-15T08:49:55.282Z,97082.59
2023-05-15T08:53:59.467Z,97093.38
2023-05-15T08:58:03.436Z,97097.47
2023-05-15T09:02:07.568Z,97088.34
2023-05-15T09:06:12.356Z,97094.09
2023-05-15T09:10:17.227Z,97102.09
2023-05-15T09:14:20.292Z,97109.44
2023-05-15T09:18:25.381Z,97114.44
2023-05-15T09:22:35.811Z,97111.88
2023-05-15T09:26:39.242Z,97114.84
2023-05-15T09:30:44.002Z,97120.88
2023-05-15T09:34:48.230Z,97103.59
2023-05-15T09:39:00.205Z,97119.50
2023-05-15T09:43:03.457Z,97118.31
2023-05-15T09:47:07.873Z,97117.28
2023-05-15T09:51:16.724Z,97114.09
2023-05-15T09:55:24.014Z,97119.34
2023-05-15T09:59:27.694Z,97122.59
2023-05-15T10:03:30.987Z,97122.44
2023-05-15T10:07:35.802Z,97113.88
2023-05-15T10:11:42.016Z,97115.81
2023-05-15T10:15:46.107Z,97098.88
2023-05-15T10:24:01.995Z,97103.28
2023-05-15T10:28:10.132Z,97095.03
2023-05-15T10:32:14.323Z,97097.41
2023-05-15T10:36:18.555Z,97084.81
2023-05-15T10:40:21.659Z,97082.38
2023-05-15T10:44:26.708Z,97090.69
2023-05-15T10:48:31.084Z,97094.56
2023-05-15T10:52:34.691Z,97080.53
2023-05-15T10:56:40.852Z,97079.22
2023-05-15T11:00:46.943Z,97067.78
2023-05-15T11:04:54.720Z,97061.94
2023-05-15T11:09:36.617Z,97063.28
2023-05-15T11:14:15.510Z,97069.59
2023-05-15T11:18:22.015Z,97071.03
2023-05-15T11:22:32.139Z,97077.97
2023-05-15T11:26:35.429Z,97089.22
2023-05-15T11:30:40.053Z,97088.03
2023-05-15T11:34:45.320Z,97088.00
2023-05-15T11:38:52.459Z,97090.91
2023-05-15T11:43:07.914Z,97093.19
2023-05-15T11:47:12.334Z,97088.81
2023-05-15T11:51:21.968Z,97082.06
2023-05-15T11:55:27.554Z,97087.56
2023-05-15T11:59:32.101Z,97084.63
2023-05-15T12:03:36.311Z,97079.34
2023-05-15T12:07:43.761Z,97084.28
2023-05-15T12:11:52.296Z,97076.81
2023-05-15T12:15:57.143Z,97078.88
2023-05-15T12:20:01.375Z,97059.22
2023-05-15T12:24:08.335Z,97085.94
2023-05-15T12:28:13.299Z,97088.78
2023-05-15T12:32:17.789Z,97088.03
2023-05-15T12:36:22.571Z,97092.25
2023-05-15T12:41:25.758Z,97089.75
2023-05-15T12:45:29.166Z,97087.41
2023-05-15T12:49:32.511Z,97083.66
2023-05-15T12:53:36.492Z,97091.78
2023-05-15T12:57:43.282Z,97091.91
2023-05-15T13:01:46.842Z,97077.97
2023-05-15T13:05:50.489Z,97034.31
2023-05-15T13:10:04.831Z,97028.34
2023-05-15T13:14:17.812Z,97028.56
2023-05-15T13:18:21.212Z,97065.66
2023-05-15T13:22:25.091Z,97059.59
2023-05-15T13:26:28.783Z,97060.16
2023-05-15T13:30:34.354Z,97065.56
2023-05-15T13:34:37.655Z,97056.56
2023-05-15T13:38:41.200Z,97068.50
2023-05-15T13:42:47.435Z,97066.91
2023-05-15T13:46:55.013Z,97065.44
2023-05-15T13:50:58.629Z,97055.81
2023-05-15T13:55:01.854Z,97055.47
2023-05-15T13:59:05.302Z,97064.44
2023-05-15T14:03:11.252Z,97060.88
2023-05-15T14:07:16.003Z,97059.81
2023-05-15T14:11:19.348Z,97046.84
2023-05-15T14:15:25.181Z,97033.97
2023-05-15T14:19:29.872Z,97030.50
2023-05-15T14:23:33.370Z,97027.00
2023-05-15T14:27:36.641Z,97009.06
2023-05-15T14:31:39.698Z,97014.28
2023-05-15T14:35:44.417Z,97023.38
2023-05-15T14:39:47.866Z,97022.34
2023-05-15T14:43:51.133Z,97017.94
2023-05-15T14:47:54.572Z,97023.22
2023-05-15T14:51:59.309Z,97013.69
2023-05-15T14:56:04.780Z,97004.66
2023-05-15T15:00:11.225Z,97018.88
2023-05-15T15:04:14.568Z,97022.94
2023-05-15T15:08:20.198Z,97026.91
2023-05-15T15:12:23.724Z,97025.44
2023-05-15T15:16:27.377Z,97018.22
2023-05-15T15:20:30.715Z,97025.44
2023-05-15T15:24:35.237Z,97026.97
2023-05-15T15:28:38.669Z,97027.78
2023-05-15T15:32:43.206Z,97016.47
2023-05-15T15:36:46.612Z,97005.84
2023-05-15T15:40:51.434Z,96999.47
2023-05-15T15:44:55.047Z,96991.19
2023-05-15T15:48:58.438Z,96999.38
2023-05-15T15:53:01.898Z,97027.66
2023-05-15T15:57:07.441Z,97040.88
2023-05-15T16:01:11.517Z,97035.13
2023-05-15T16:05:15.553Z,97035.38
2023-05-15T16:09:20.065Z,97027.44
2023-05-15T16:13:25.029Z,97026.06
2023-05-15T16:17:27.952Z,97026.97
2023-05-15T16:21:31.369Z,97014.47
2023-05-15T16:25:34.408Z,97013.41
2023-05-15T16:29:39.093Z,97030.53
2023-05-15T16:33:42.416Z,97030.06
2023-05-15T16:37:45.371Z,97033.50
2023-05-15T16:41:49.030Z,97032.63
2023-05-15T16:45:53.643Z,97033.63
2023-05-15T16:49:56.922Z,97030.94
2023-05-15T16:54:01.604Z,97039.75
2023-05-15T16:58:04.881Z,97055.31
2023-05-15T17:02:09.783Z,97063.78
2023-05-15T17:06:13.345Z,97074.38
2023-05-15T17:10:16.769Z,97093.81
2023-05-15T17:14:19.924Z,97131.03
2023-05-15T17:18:25.653Z,97139.50
2023-05-15T17:22:29.311Z,97148.72
2023-05-15T17:26:36.722Z,97152.41
2023-05-15T17:30:40.067Z,97146.53
2023-05-15T17:34:46.785Z,97149.63
2023-05-15T17:38:51.555Z,97137.56
2023-05-15T17:42:55.012Z,97135.34
2023-05-15T17:46:58.377Z,97143.81
2023-05-15T17:51:03.274Z,97145.66
2023-05-15T17:55:08.215Z,97147.63
2023-05-15T17:59:11.539Z,97150.03
2023-05-15T18:03:15.485Z,97150.84
2023-05-15T18:07:20.492Z,97148.41
2023-05-15T18:11:23.616Z,97148.41
2023-05-15T18:15:27.344Z,97148.38
2023-05-15T18:19:31.023Z,97145.56
2023-05-15T18:23:35.618Z,97145.31
2023-05-15T18:27:38.733Z,97151.97
2023-05-15T18:31:42.494Z,97166.50
2023-05-15T18:35:46.084Z,97156.16
2023-05-15T18:39:51.126Z,97161.59
2023-05-15T18:43:54.338Z,97178.31
2023-05-15T18:47:58.932Z,97181.84
2023-05-15T18:52:04.242Z,97187.66
2023-05-15T18:56:09.265Z,97186.44
2023-05-15T19:00:16.831Z,97200.06
2023-05-15T19:04:24.683Z,97201.03
2023-05-15T19:08:29.063Z,97205.28
2023-05-15T19:12:33.980Z,97212.50
2023-05-15T19:16:37.902Z,97211.84
2023-05-15T19:20:41.258Z,97211.81
2023-05-15T19:24:44.535Z,97205.97
2023-05-15T19:28:49.246Z,97216.00
2023-05-15T19:32:52.789Z,97212.31
2023-05-15T19:36:56.482Z,97218.72
2023-05-15T19:40:59.940Z,97219.47
2023-05-15T19:45:05.333Z,97223.66
2023-05-15T19:49:08.621Z,97221.34
2023-05-15T19:53:12.636Z,97233.75
2023-05-15T19:57:16.284Z,97229.84
2023-05-15T20:01:21.183Z,97222.75
2023-05-15T20:05:24.759Z,97232.31
2023-05-15T20:09:27.732Z,97233.06
2023-05-15T20:13:31.591Z,97231.44
2023-05-15T20:17:36.771Z,97228.63
2023-05-15T20:21:40.421Z,97229.06
2023-05-15T20:25:43.748Z,97222.47
2023-05-15T20:29:46.988Z,97222.66
2023-05-15T20:33:52.168Z,97228.06
2023-05-15T20:37:56.580Z,97227.84
2023-05-15T20:42:00.202Z,97231.81
2023-05-15T20:46:03.233Z,97223.09
2023-05-15T20:50:09.694Z,97222.97
2023-05-15T20:54:13.161Z,97224.25
2023-05-15T20:58:16.979Z,97214.47
2023-05-15T21:02:20.083Z,97218.81
2023-05-15T21:06:25.118Z,97224.31
2023-05-15T21:10:28.390Z,97230.63
2023-05-15T21:14:32.288Z,97230.09
2023-05-15T21:18:35.807Z,97230.81
2023-05-15T21:22:41.438Z,97222.19
2023-05-15T21:26:44.709Z,97227.41
2023-05-15T21:30:48.250Z,97239.75
2023-05-15T21:34:51.301Z,97239.63
2023-05-15T21:38:56.466Z,97252.75
2023-05-15T21:42:59.595Z,97256.59
2023-05-15T21:47:03.260Z,97256.00
2023-05-15T21:51:06.725Z,97253.91
2023-05-15T21:55:13.008Z,97264.34
2023-05-15T21:59:16.031Z,97261.56
2023-05-15T22:03:20.448Z,97263.66
2023-05-15T22:07:23.783Z,97260.56
2023-05-15T22:11:28.395Z,97263.00
2023-05-15T22:15:32.183Z,97266.59
2023-05-15T22:19:36.183Z,97261.38
2023-05-15T22:23:39.297Z,97264.97
2023-05-15T22:27:44.409Z,97262.19
2023-05-15T22:31:47.682Z,97271.00
2023-05-15T22:35:51.996Z,97267.56
2023-05-15T22:39:55.217Z,97270.19
2023-05-15T22:44:00.018Z,97270.53
2023-05-15T22:48:03.867Z,97271.84
2023-05-15T22:52:07.709Z,97280.72
2023-05-15T22:56:10.968Z,97281.44
2023-05-15T23:00:18.623Z,97273.94
2023-05-15T23:04:22.143Z,97276.56
2023-05-15T23:08:25.811Z,97279.63
2023-05-15T23:12:29.108Z,97287.09
2023-05-15T23:16:34.109Z,97270.91
2023-05-15T23:20:37.782Z,97270.41
2023-05-15T23:24:41.269Z,97267.28
2023-05-15T23:28:44.298Z,97279.00
2023-05-15T23:32:49.402Z,97275.22
2023-05-15T23:36:52.643Z,97275.03
2023-05-15T23:40:56.326Z,97265.25
2023-05-15T23:44:59.283Z,97271.75
2023-05-15T23:49:04.152Z,97266.16
2023-05-15T23:53:08.403Z,97269.78
2023-05-15T23:57:12.393Z,97272.75
